Time;durP1;ratioP1;P1;durP2;ratioP2;P2;SDS_P1;SDS_P2;PMS_P1;PMS_P2;Temp;Humidity;BMP_temperature;BMP_pressure;BME280_temperature;BME280_humidity;BME280_pressure;Samples;Min_cycle;Max_cycle;Signal;HPM_P1;HPM_P2
2022/07/31 00:01:10;;;;;;;;;;;20.30;99.90;;;;;;5100488;28;20087;-65
2022/07/31 00:03:36;;;;;;;;;;;20.30;99.90;;;;;;5102285;28;19915;-65
2022/07/31 00:06:02;;;;;;;;;;;20.30;99.90;;;;;;5077033;28;20228;-67
2022/07/31 00:08:28;;;;;;;;;;;20.20;99.90;;;;;;5083713;28;19956;-66
2022/07/31 00:10:53;;;;;;;;;;;20.10;99.90;;;;;;5101744;28;20007;-67
2022/07/31 00:13:19;;;;;;;;;;;20.10;99.90;;;;;;5099160;28;19938;-66
2022/07/31 00:15:45;;;;;;;;;;;20.10;99.90;;;;;;5079103;28;19907;-66
2022/07/31 00:18:10;;;;;;;;;;;20.10;99.90;;;;;;5084694;28;19994;-66
2022/07/31 00:20:36;;;;;;;;;;;20.20;99.90;;;;;;5079384;28;19938;-66
2022/07/31 00:23:01;;;;;;;;;;;20.20;99.90;;;;;;5097593;28;19919;-67
2022/07/31 00:25:27;;;;;;;;;;;20.20;99.90;;;;;;5099755;28;19993;-67
2022/07/31 00:27:52;;;;;;;;;;;20.20;99.90;;;;;;5097551;28;19931;-67
2022/07/31 00:30:18;;;;;;;;;;;20.20;99.90;;;;;;5073721;28;19920;-66
2022/07/31 00:32:44;;;;;;;;;;;20.20;99.90;;;;;;5075874;28;19920;-67
2022/07/31 00:35:10;;;;;;;;;;;20.20;99.90;;;;;;5080814;28;19916;-66
2022/07/31 00:37:36;;;;;;;;;;;20.20;99.90;;;;;;5077295;28;19999;-66
2022/07/31 00:40:04;;;;;;;;;;;20.20;99.90;;;;;;5077878;28;20371;-68
2022/07/31 00:42:29;;;;;;;;;;;20.20;99.90;;;;;;5078948;28;20259;-66
2022/07/31 00:44:55;;;;;;;;;;;20.20;99.90;;;;;;5080645;28;19912;-67
2022/07/31 00:47:20;;;;;;;;;;;20.30;99.90;;;;;;5074658;28;20043;-65
2022/07/31 00:49:46;;;;;;;;;;;20.30;99.90;;;;;;5075749;28;20382;-66
2022/07/31 00:52:12;;;;;;;;;;;20.30;99.90;;;;;;5075715;28;20366;-66
2022/07/31 00:54:37;;;;;;;;;;;20.30;99.90;;;;;;5080656;28;19951;-66
2022/07/31 00:57:03;;;;;;;;;;;20.30;99.90;;;;;;5072834;28;19920;-67
2022/07/31 00:59:29;;;;;;;;;;;20.30;99.90;;;;;;5070811;28;19920;-67
2022/07/31 01:01:55;;;;;;;;;;;20.40;99.90;;;;;;5076098;28;19912;-66
2022/07/31 01:04:21;;;;;;;;;;;20.60;99.90;;;;;;5077793;28;19912;-67
2022/07/31 01:06:46;;;;;;;;;;;20.70;99.90;;;;;;5077212;28;20487;-66
2022/07/31 01:09:15;;;;;;;;;;;20.70;99.90;;;;;;5078535;28;20283;-66
2022/07/31 01:11:46;;;;;;;;;;;20.90;99.90;;;;;;5078796;28;19927;-66
2022/07/31 01:14:12;;;;;;;;;;;21.00;99.90;;;;;;5075216;28;20342;-66
2022/07/31 01:16:50;;;;;;;;;;;21.20;99.90;;;;;;5078946;28;20396;-66
2022/07/31 01:19:21;;;;;;;;;;;21.10;99.90;;;;;;5079365;28;19912;-66
2022/07/31 01:22:07;;;;;;;;;;;21.20;99.90;;;;;;5078803;28;19924;-67
2022/07/31 01:24:36;;;;;;;;;;;21.10;99.90;;;;;;5053778;28;20352;-67
2022/07/31 01:27:04;;;;;;;;;;;21.10;99.90;;;;;;5076458;28;19912;-66
2022/07/31 01:29:39;;;;;;;;;;;21.00;99.90;;;;;;5084166;28;20004;-66
2022/07/31 01:32:07;;;;;;;;;;;21.00;99.90;;;;;;5100798;28;19941;-66
2022/07/31 01:34:43;;;;;;;;;;;21.10;99.90;;;;;;5091777;28;19919;-66
2022/07/31 01:37:19;;;;;;;;;;;21.10;99.90;;;;;;5091413;28;19913;-66
2022/07/31 01:39:51;;;;;;;;;;;21.10;99.90;;;;;;5102571;28;19974;-66
2022/07/31 01:42:18;;;;;;;;;;;21.10;99.90;;;;;;5096070;28;20030;-67
2022/07/31 01:44:46;;;;;;;;;;;21.20;99.90;;;;;;5095777;28;20367;-66
2022/07/31 01:47:15;;;;;;;;;;;21.20;99.90;;;;;;5097686;28;19916;-66
2022/07/31 01:49:41;;;;;;;;;;;21.30;99.90;;;;;;5092087;28;20389;-66
2022/07/31 01:52:08;;;;;;;;;;;21.20;99.90;;;;;;5093165;28;20209;-67
2022/07/31 01:54:35;;;;;;;;;;;21.10;99.90;;;;;;5082525;28;19964;-67
2022/07/31 01:57:02;;;;;;;;;;;21.00;99.90;;;;;;5107589;28;20345;-67
2022/07/31 01:59:28;;;;;;;;;;;21.10;99.90;;;;;;5095257;28;20687;-67
2022/07/31 02:01:54;;;;;;;;;;;21.10;99.90;;;;;;5092360;28;19926;-66
2022/07/31 02:04:20;;;;;;;;;;;21.00;99.90;;;;;;5082871;28;19990;-66
2022/07/31 02:06:47;;;;;;;;;;;21.10;99.90;;;;;;5095511;28;19929;-66
2022/07/31 02:09:13;;;;;;;;;;;21.20;99.90;;;;;;5095743;28;19918;-65
2022/07/31 02:11:40;;;;;;;;;;;21.10;99.90;;;;;;5099195;28;20042;-66
2022/07/31 02:14:06;;;;;;;;;;;21.00;99.90;;;;;;5092126;28;19927;-66
2022/07/31 02:16:32;;;;;;;;;;;20.90;99.90;;;;;;5092556;28;19912;-66
2022/07/31 02:18:58;;;;;;;;;;;20.80;99.90;;;;;;5094925;28;20279;-66
2022/07/31 02:21:24;;;;;;;;;;;20.80;99.90;;;;;;5091652;28;19912;-66
2022/07/31 02:23:51;;;;;;;;;;;20.70;99.90;;;;;;5098533;28;19912;-66
2022/07/31 02:26:16;;;;;;;;;;;20.70;99.90;;;;;;5096086;28;19912;-66
2022/07/31 02:28:43;;;;;;;;;;;20.70;99.90;;;;;;5095030;28;19986;-67
2022/07/31 02:31:10;;;;;;;;;;;20.80;99.90;;;;;;5096030;28;19930;-66
2022/07/31 02:33:36;;;;;;;;;;;20.80;99.90;;;;;;5093193;28;20003;-67
2022/07/31 02:36:03;;;;;;;;;;;20.80;99.90;;;;;;5095090;28;19913;-66
2022/07/31 02:38:29;;;;;;;;;;;20.90;99.90;;;;;;5101301;28;19916;-67
2022/07/31 02:40:56;;;;;;;;;;;21.00;99.90;;;;;;5093652;28;20309;-66
2022/07/31 02:43:23;;;;;;;;;;;21.00;99.90;;;;;;5099298;28;19916;-66
2022/07/31 02:45:49;;;;;;;;;;;21.00;99.90;;;;;;5095095;28;19912;-66
2022/07/31 02:48:14;;;;;;;;;;;21.10;99.90;;;;;;5098464;28;19916;-67
2022/07/31 02:50:40;;;;;;;;;;;21.10;99.90;;;;;;5092457;28;20013;-66
2022/07/31 02:53:06;;;;;;;;;;;21.20;99.90;;;;;;5093637;28;19927;-67
2022/07/31 02:55:32;;;;;;;;;;;21.10;99.90;;;;;;5095235;28;19916;-66
2022/07/31 02:57:58;;;;;;;;;;;21.10;99.90;;;;;;5094860;28;19920;-66
2022/07/31 03:00:25;;;;;;;;;;;21.10;99.90;;;;;;5096132;28;20033;-66
2022/07/31 03:02:52;;;;;;;;;;;21.00;99.90;;;;;;5096855;28;20398;-67
2022/07/31 03:05:18;;;;;;;;;;;20.90;99.90;;;;;;5093936;28;20326;-66
2022/07/31 03:07:44;;;;;;;;;;;20.80;99.90;;;;;;5078850;28;19912;-67
2022/07/31 03:10:10;;;;;;;;;;;20.90;99.90;;;;;;5079265;28;20475;-66
2022/07/31 03:12:38;;;;;;;;;;;21.00;99.90;;;;;;5096312;28;19916;-66
2022/07/31 03:15:06;;;;;;;;;;;21.10;99.90;;;;;;5094714;28;19916;-66
2022/07/31 03:17:32;;;;;;;;;;;21.00;99.90;;;;;;5098447;28;19912;-66
2022/07/31 03:19:57;;;;;;;;;;;20.90;99.90;;;;;;5097936;28;19926;-67
2022/07/31 03:22:23;;;;;;;;;;;20.90;99.90;;;;;;5077806;28;19924;-67
2022/07/31 03:24:48;;;;;;;;;;;20.90;99.90;;;;;;5098327;28;20333;-67
2022/07/31 03:27:14;;;;;;;;;;;20.80;99.90;;;;;;5082956;28;19916;-66
2022/07/31 03:29:40;;;;;;;;;;;20.70;99.90;;;;;;5102128;28;19973;-67
2022/07/31 03:32:05;;;;;;;;;;;20.90;99.90;;;;;;5096981;28;19938;-67
2022/07/31 03:34:31;;;;;;;;;;;20.90;99.90;;;;;;5095057;28;20004;-66
2022/07/31 03:36:57;;;;;;;;;;;20.80;99.90;;;;;;5098450;28;19912;-66
2022/07/31 03:39:23;;;;;;;;;;;20.90;99.90;;;;;;5099649;28;20277;-66
2022/07/31 03:41:49;;;;;;;;;;;20.80;99.90;;;;;;5104810;28;19912;-66
2022/07/31 03:44:15;;;;;;;;;;;20.80;99.90;;;;;;5100026;28;19919;-66
2022/07/31 03:46:41;;;;;;;;;;;20.70;99.90;;;;;;5082870;28;19912;-67
2022/07/31 03:49:06;;;;;;;;;;;20.70;99.90;;;;;;5097071;28;19945;-67
2022/07/31 03:51:32;;;;;;;;;;;20.80;99.90;;;;;;5102314;28;19966;-66
2022/07/31 03:53:58;;;;;;;;;;;20.70;99.90;;;;;;5092203;28;19916;-66
2022/07/31 03:56:24;;;;;;;;;;;20.60;99.90;;;;;;5096917;28;20380;-66
2022/07/31 03:58:49;;;;;;;;;;;20.50;99.90;;;;;;5095692;28;19912;-66
2022/07/31 04:01:16;;;;;;;;;;;20.60;99.90;;;;;;5094156;28;19919;-67
2022/07/31 04:03:42;;;;;;;;;;;20.70;99.90;;;;;;5096975;28;20386;-67
2022/07/31 04:06:07;;;;;;;;;;;20.80;99.90;;;;;;5082802;28;19923;-67
2022/07/31 04:08:33;;;;;;;;;;;20.80;99.90;;;;;;5104802;28;19965;-67
2022/07/31 04:10:59;;;;;;;;;;;20.70;99.90;;;;;;5095246;28;19915;-66
2022/07/31 04:13:24;;;;;;;;;;;20.60;99.90;;;;;;5094363;28;19917;-67
2022/07/31 04:15:50;;;;;;;;;;;20.70;99.90;;;;;;5095112;28;19920;-67
2022/07/31 04:18:15;;;;;;;;;;;20.60;99.90;;;;;;5096348;28;20015;-66
2022/07/31 04:20:41;;;;;;;;;;;20.70;99.90;;;;;;5104798;28;19912;-67
2022/07/31 04:23:06;;;;;;;;;;;20.70;99.90;;;;;;5097041;28;19938;-66
2022/07/31 04:25:32;;;;;;;;;;;20.70;99.90;;;;;;5093381;28;20427;-66
2022/07/31 04:27:59;;;;;;;;;;;20.70;99.90;;;;;;5101167;28;19999;-66
2022/07/31 04:30:24;;;;;;;;;;;20.70;99.90;;;;;;5077885;28;19927;-66
2022/07/31 04:32:50;;;;;;;;;;;20.70;99.90;;;;;;5092372;28;19916;-66
2022/07/31 04:35:16;;;;;;;;;;;20.60;99.90;;;;;;5101071;28;19920;-67
2022/07/31 04:37:41;;;;;;;;;;;20.60;99.90;;;;;;5094406;28;19912;-67
2022/07/31 04:40:07;;;;;;;;;;;20.70;99.90;;;;;;5094678;28;20015;-66
2022/07/31 04:42:33;;;;;;;;;;;20.80;99.90;;;;;;5094656;28;19965;-66
2022/07/31 04:44:58;;;;;;;;;;;20.80;99.90;;;;;;5090924;28;19938;-67
2022/07/31 04:47:24;;;;;;;;;;;20.80;99.90;;;;;;5102685;28;20328;-66
2022/07/31 04:49:49;;;;;;;;;;;20.80;99.90;;;;;;5093907;28;19916;-67
2022/07/31 04:52:15;;;;;;;;;;;20.90;99.90;;;;;;5090043;28;19916;-66
2022/07/31 04:54:41;;;;;;;;;;;20.80;99.90;;;;;;5092705;28;19920;-66
2022/07/31 04:57:06;;;;;;;;;;;20.80;99.90;;;;;;5082093;28;20373;-67
2022/07/31 04:59:32;;;;;;;;;;;20.80;99.90;;;;;;5100325;28;19912;-67
2022/07/31 05:01:57;;;;;;;;;;;20.60;99.90;;;;;;5100410;28;19916;-66
2022/07/31 05:04:24;;;;;;;;;;;20.30;99.90;;;;;;5078897;28;20256;-66
2022/07/31 05:06:50;;;;;;;;;;;20.20;99.90;;;;;;5095049;28;19937;-66
2022/07/31 05:09:17;;;;;;;;;;;20.10;99.90;;;;;;5092490;28;19967;-66
2022/07/31 05:11:44;;;;;;;;;;;20.00;99.90;;;;;;5096980;28;19920;-66
2022/07/31 05:14:10;;;;;;;;;;;19.90;99.90;;;;;;5101411;28;19916;-67
2022/07/31 05:16:36;;;;;;;;;;;19.80;99.90;;;;;;5102974;28;19920;-66
2022/07/31 05:19:02;;;;;;;;;;;19.90;99.90;;;;;;5103037;28;19921;-66
2022/07/31 05:21:31;;;;;;;;;;;19.70;99.90;;;;;;5097096;28;19956;-66
2022/07/31 05:23:57;;;;;;;;;;;19.70;99.90;;;;;;5097420;28;19912;-66
2022/07/31 05:26:23;;;;;;;;;;;19.70;99.90;;;;;;5098980;28;19912;-67
2022/07/31 05:28:50;;;;;;;;;;;19.60;99.90;;;;;;5096454;28;19911;-66
2022/07/31 05:31:16;;;;;;;;;;;19.70;99.90;;;;;;5096023;28;19920;-65
2022/07/31 05:33:42;;;;;;;;;;;19.70;99.90;;;;;;5099092;28;19942;-66
2022/07/31 05:36:08;;;;;;;;;;;19.60;99.90;;;;;;5096525;28;20366;-67
2022/07/31 05:38:33;;;;;;;;;;;19.70;99.90;;;;;;5078619;28;20299;-66
2022/07/31 05:40:59;;;;;;;;;;;19.80;99.90;;;;;;5097044;28;19935;-67
2022/07/31 05:43:25;;;;;;;;;;;19.80;99.90;;;;;;5078482;28;20274;-67
2022/07/31 05:45:50;;;;;;;;;;;19.80;99.90;;;;;;5078338;28;19919;-67
2022/07/31 05:48:17;;;;;;;;;;;19.90;99.90;;;;;;5101592;28;20362;-67
2022/07/31 05:50:43;;;;;;;;;;;20.10;99.90;;;;;;5093840;28;19932;-67
2022/07/31 05:53:13;;;;;;;;;;;20.10;99.90;;;;;;5097199;28;19995;-66
2022/07/31 05:55:40;;;;;;;;;;;20.20;99.90;;;;;;5095555;28;19977;-66
2022/07/31 05:58:05;;;;;;;;;;;20.20;99.90;;;;;;5094990;28;20594;-66
2022/07/31 06:00:31;;;;;;;;;;;20.40;99.90;;;;;;5093972;28;22151;-66
2022/07/31 06:02:58;;;;;;;;;;;20.50;99.90;;;;;;5095513;28;19912;-67
2022/07/31 06:05:24;;;;;;;;;;;20.50;99.90;;;;;;5093425;28;19966;-66
2022/07/31 06:07:50;;;;;;;;;;;20.40;99.90;;;;;;5096150;28;19920;-67
2022/07/31 06:10:16;;;;;;;;;;;20.30;99.90;;;;;;5094494;28;19932;-66
2022/07/31 06:12:41;;;;;;;;;;;20.40;99.90;;;;;;5076500;28;21198;-67
2022/07/31 06:15:07;;;;;;;;;;;20.50;99.90;;;;;;5093698;28;20289;-67
2022/07/31 06:17:33;;;;;;;;;;;20.50;99.90;;;;;;5097461;28;19986;-67
2022/07/31 06:19:58;;;;;;;;;;;20.60;99.90;;;;;;5098926;28;19911;-67
2022/07/31 06:22:24;;;;;;;;;;;20.60;99.90;;;;;;5100319;28;19912;-67
2022/07/31 06:24:50;;;;;;;;;;;20.60;99.90;;;;;;5097680;28;19948;-66
2022/07/31 06:27:16;;;;;;;;;;;20.60;99.90;;;;;;5099189;28;19982;-66
2022/07/31 06:29:41;;;;;;;;;;;20.60;99.90;;;;;;5098172;28;19928;-65
2022/07/31 06:32:07;;;;;;;;;;;20.60;99.90;;;;;;5076514;28;20381;-66
2022/07/31 06:34:33;;;;;;;;;;;20.50;99.90;;;;;;5093458;28;19919;-66
2022/07/31 06:36:59;;;;;;;;;;;20.50;99.90;;;;;;5093410;28;19916;-67
2022/07/31 06:39:24;;;;;;;;;;;20.50;99.90;;;;;;5096783;28;19920;-66
2022/07/31 06:41:50;;;;;;;;;;;20.60;99.90;;;;;;5094215;28;20012;-67
2022/07/31 06:44:16;;;;;;;;;;;20.60;99.90;;;;;;5095527;28;19916;-67
2022/07/31 06:46:41;;;;;;;;;;;20.60;99.90;;;;;;5089395;28;19920;-67
2022/07/31 06:49:07;;;;;;;;;;;20.50;99.90;;;;;;5097123;28;19965;-66
2022/07/31 06:51:33;;;;;;;;;;;20.50;99.90;;;;;;5090474;28;20282;-66
2022/07/31 06:54:00;;;;;;;;;;;20.50;99.90;;;;;;5076663;28;19915;-66
2022/07/31 06:56:26;;;;;;;;;;;20.50;99.90;;;;;;5079652;28;19959;-66
2022/07/31 06:58:52;;;;;;;;;;;20.50;99.90;;;;;;5088779;28;19957;-65
2022/07/31 07:01:17;;;;;;;;;;;20.40;99.90;;;;;;5104805;28;20354;-67
2022/07/31 07:03:43;;;;;;;;;;;20.30;99.90;;;;;;5094347;28;19923;-67
2022/07/31 07:06:08;;;;;;;;;;;20.20;99.90;;;;;;5097389;28;19916;-65
2022/07/31 07:08:34;;;;;;;;;;;20.10;99.90;;;;;;5095772;28;19919;-67
2022/07/31 07:11:00;;;;;;;;;;;20.00;99.90;;;;;;5092946;28;19916;-67
2022/07/31 07:13:25;;;;;;;;;;;20.00;99.90;;;;;;5096187;28;19997;-67
2022/07/31 07:15:51;;;;;;;;;;;20.00;99.90;;;;;;5104212;28;19995;-66
2022/07/31 07:18:17;;;;;;;;;;;19.90;99.90;;;;;;5099608;28;19965;-66
2022/07/31 07:20:42;;;;;;;;;;;19.90;99.90;;;;;;5079811;28;19912;-66
2022/07/31 07:23:08;;;;;;;;;;;20.00;99.90;;;;;;5098771;28;19964;-66
2022/07/31 07:25:33;;;;;;;;;;;20.00;99.90;;;;;;5091847;28;19951;-67
2022/07/31 07:27:59;;;;;;;;;;;20.00;99.90;;;;;;5098129;28;19919;-67
2022/07/31 07:30:27;;;;;;;;;;;20.00;99.90;;;;;;5093589;28;19928;-66
2022/07/31 07:32:53;;;;;;;;;;;20.00;99.90;;;;;;5095913;28;19912;-66
2022/07/31 07:35:19;;;;;;;;;;;20.10;99.90;;;;;;5097441;28;19977;-67
2022/07/31 07:37:44;;;;;;;;;;;20.00;99.90;;;;;;5104687;28;19935;-67
2022/07/31 07:40:10;;;;;;;;;;;20.00;99.90;;;;;;5099744;28;19966;-67
2022/07/31 07:42:36;;;;;;;;;;;19.90;99.90;;;;;;5100284;28;19912;-67
2022/07/31 07:45:02;;;;;;;;;;;19.90;99.90;;;;;;5095765;28;20329;-66
2022/07/31 07:47:27;;;;;;;;;;;19.90;99.90;;;;;;5078020;28;19912;-67
2022/07/31 07:49:53;;;;;;;;;;;19.70;99.90;;;;;;5081584;28;19971;-67
2022/07/31 07:52:18;;;;;;;;;;;19.70;99.90;;;;;;5080167;28;19912;-66
2022/07/31 07:54:44;;;;;;;;;;;19.70;99.90;;;;;;5094821;28;19919;-67
2022/07/31 07:57:14;;;;;;;;;;;19.80;99.90;;;;;;5079551;28;19935;-67
2022/07/31 07:59:40;;;;;;;;;;;19.80;99.90;;;;;;5096750;28;20353;-67
2022/07/31 08:02:05;;;;;;;;;;;19.90;99.90;;;;;;5095727;28;19958;-67
2022/07/31 08:04:31;;;;;;;;;;;19.80;99.90;;;;;;5090738;28;20270;-66
2022/07/31 08:06:56;;;;;;;;;;;19.90;99.90;;;;;;5097952;28;19935;-67
2022/07/31 08:09:23;;;;;;;;;;;19.90;99.90;;;;;;5081326;28;20392;-67
2022/07/31 08:11:49;;;;;;;;;;;19.80;99.90;;;;;;5089875;28;19965;-67
2022/07/31 08:14:14;;;;;;;;;;;19.90;99.90;;;;;;5101479;28;19912;-67
2022/07/31 08:16:40;;;;;;;;;;;19.90;99.90;;;;;;5079993;28;20041;-67
2022/07/31 08:19:05;;;;;;;;;;;19.70;99.90;;;;;;5095009;28;20259;-67
2022/07/31 08:21:33;;;;;;;;;;;19.80;99.90;;;;;;5102081;28;19991;-66
2022/07/31 08:23:59;;;;;;;;;;;19.80;99.90;;;;;;5102380;28;19912;-68
2022/07/31 08:26:24;;;;;;;;;;;19.80;99.90;;;;;;5092033;28;20016;-67
2022/07/31 08:28:50;;;;;;;;;;;19.80;99.90;;;;;;5093923;28;20678;-66
2022/07/31 08:31:15;;;;;;;;;;;19.90;99.90;;;;;;5093023;28;19927;-66
2022/07/31 08:33:41;;;;;;;;;;;19.90;99.90;;;;;;5094758;28;19920;-67
2022/07/31 08:36:07;;;;;;;;;;;19.80;99.90;;;;;;5093296;28;20358;-67
2022/07/31 08:38:34;;;;;;;;;;;19.80;99.90;;;;;;5096907;28;19945;-67
2022/07/31 08:41:00;;;;;;;;;;;19.70;99.90;;;;;;5099850;28;20018;-67
2022/07/31 08:43:26;;;;;;;;;;;19.70;99.90;;;;;;5097114;28;20003;-67
2022/07/31 08:45:52;;;;;;;;;;;19.80;99.90;;;;;;5080218;28;19912;-67
2022/07/31 08:48:19;;;;;;;;;;;19.90;99.90;;;;;;5094930;28;20330;-67
2022/07/31 08:50:45;;;;;;;;;;;19.90;99.90;;;;;;5093991;28;19928;-68
2022/07/31 08:53:14;;;;;;;;;;;19.90;99.90;;;;;;5091316;28;19908;-68
2022/07/31 08:55:40;;;;;;;;;;;20.10;99.90;;;;;;5093450;28;22025;-68
2022/07/31 08:58:05;;;;;;;;;;;20.10;99.90;;;;;;5094300;28;19912;-68
2022/07/31 09:00:32;;;;;;;;;;;20.20;99.90;;;;;;5093595;28;20186;-70
2022/07/31 09:02:57;;;;;;;;;;;20.10;99.90;;;;;;5095827;28;20053;-69
2022/07/31 09:05:23;;;;;;;;;;;19.90;99.90;;;;;;5094207;28;20003;-68
2022/07/31 09:07:49;;;;;;;;;;;19.80;99.90;;;;;;5094908;28;20385;-69
2022/07/31 09:10:18;;;;;;;;;;;19.70;99.90;;;;;;5070798;28;20011;-69
2022/07/31 09:12:44;;;;;;;;;;;19.70;99.90;;;;;;5087789;28;20396;-69
2022/07/31 09:15:20;;;;;;;;;;;19.80;99.90;;;;;;5095044;28;20047;-68
2022/07/31 09:17:45;;;;;;;;;;;19.80;99.90;;;;;;5091726;28;19920;-69
2022/07/31 09:20:19;;;;;;;;;;;19.80;99.90;;;;;;5087814;28;20058;-68
2022/07/31 09:22:45;;;;;;;;;;;19.90;99.90;;;;;;5093574;28;19927;-68
2022/07/31 09:25:15;;;;;;;;;;;20.10;99.90;;;;;;5092241;28;19919;-68
2022/07/31 09:27:41;;;;;;;;;;;20.10;99.90;;;;;;5092007;28;19919;-68
2022/07/31 09:30:07;;;;;;;;;;;20.20;99.90;;;;;;5097215;28;20010;-68
2022/07/31 09:32:32;;;;;;;;;;;20.30;99.90;;;;;;5066775;28;20341;-68
2022/07/31 09:35:11;;;;;;;;;;;20.40;99.90;;;;;;5084267;28;19919;-68
2022/07/31 09:37:38;;;;;;;;;;;20.50;99.90;;;;;;5097995;28;20350;-67
2022/07/31 09:40:04;;;;;;;;;;;20.60;99.90;;;;;;5092227;28;19920;-68
2022/07/31 09:42:42;;;;;;;;;;;20.80;99.90;;;;;;5097932;28;19943;-68
2022/07/31 09:45:21;;;;;;;;;;;20.80;99.90;;;;;;5077177;28;19912;-67
2022/07/31 09:47:47;;;;;;;;;;;20.80;99.90;;;;;;5094606;28;19920;-68
2022/07/31 09:50:12;;;;;;;;;;;21.10;99.90;;;;;;5072784;28;20065;-68
2022/07/31 09:52:38;;;;;;;;;;;21.30;99.90;;;;;;5086168;28;19995;-68
2022/07/31 09:55:05;;;;;;;;;;;21.40;99.90;;;;;;5090268;28;19928;-68
2022/07/31 09:57:33;;;;;;;;;;;21.40;99.90;;;;;;5096698;28;19912;-69
2022/07/31 09:59:58;;;;;;;;;;;21.40;99.90;;;;;;5089891;28;20265;-68
2022/07/31 10:02:26;;;;;;;;;;;21.60;99.90;;;;;;5087129;28;19955;-67
2022/07/31 10:04:54;;;;;;;;;;;21.80;99.90;;;;;;5068484;28;19912;-70
2022/07/31 10:07:24;;;;;;;;;;;21.70;99.90;;;;;;5085481;28;20260;-70
2022/07/31 10:09:50;;;;;;;;;;;21.70;99.90;;;;;;5092769;28;19912;-70
2022/07/31 10:12:18;;;;;;;;;;;21.60;99.90;;;;;;5092383;28;19920;-68
2022/07/31 10:14:45;;;;;;;;;;;21.70;99.90;;;;;;5092577;28;19923;-67
2022/07/31 10:17:12;;;;;;;;;;;21.60;99.90;;;;;;5096329;28;20497;-68
2022/07/31 10:19:40;;;;;;;;;;;21.50;99.90;;;;;;5093229;28;20419;-68
2022/07/31 10:22:11;;;;;;;;;;;21.60;99.90;;;;;;5093275;28;19920;-68
2022/07/31 10:24:39;;;;;;;;;;;21.50;99.90;;;;;;5089912;28;20022;-69
2022/07/31 10:27:05;;;;;;;;;;;21.70;99.90;;;;;;5093370;28;19940;-68
2022/07/31 10:29:31;;;;;;;;;;;21.80;99.90;;;;;;5083024;28;20022;-67
2022/07/31 10:31:56;;;;;;;;;;;21.70;99.90;;;;;;5074733;28;20330;-68
2022/07/31 10:34:22;;;;;;;;;;;21.70;99.90;;;;;;5092601;28;19916;-69
2022/07/31 10:36:49;;;;;;;;;;;21.60;99.90;;;;;;5093036;28;19912;-69
2022/07/31 10:39:18;;;;;;;;;;;21.70;99.90;;;;;;5091350;28;19913;-68
2022/07/31 10:41:46;;;;;;;;;;;21.60;99.90;;;;;;5097342;28;19919;-67
2022/07/31 10:44:15;;;;;;;;;;;21.70;99.90;;;;;;5097100;28;19912;-68
2022/07/31 10:46:41;;;;;;;;;;;21.80;99.90;;;;;;5101252;28;19919;-67
2022/07/31 10:49:06;;;;;;;;;;;21.80;99.90;;;;;;5091206;28;19913;-67
2022/07/31 10:51:32;;;;;;;;;;;21.80;99.90;;;;;;5100256;28;19923;-68
2022/07/31 10:53:59;;;;;;;;;;;21.80;99.90;;;;;;5095315;28;20016;-69
2022/07/31 10:56:25;;;;;;;;;;;21.80;99.90;;;;;;5081534;28;19961;-68
2022/07/31 10:58:54;;;;;;;;;;;21.80;99.90;;;;;;5083379;28;20382;-68
2022/07/31 11:01:21;;;;;;;;;;;21.70;99.90;;;;;;5071609;28;19919;-68
2022/07/31 11:03:48;;;;;;;;;;;21.90;99.90;;;;;;5103608;28;20116;-67
2022/07/31 11:06:15;;;;;;;;;;;22.00;99.90;;;;;;5094521;28;20378;-68
2022/07/31 11:08:41;;;;;;;;;;;22.20;99.90;;;;;;5090631;28;19912;-68
2022/07/31 11:11:06;;;;;;;;;;;22.40;99.90;;;;;;5088980;28;19916;-68
2022/07/31 11:13:43;;;;;;;;;;;22.50;99.90;;;;;;5096577;28;20366;-69
2022/07/31 11:16:08;;;;;;;;;;;22.40;99.90;;;;;;5076309;28;19957;-69
2022/07/31 11:18:34;;;;;;;;;;;22.50;99.90;;;;;;5084227;28;19911;-68
2022/07/31 11:21:00;;;;;;;;;;;22.40;99.90;;;;;;5099558;28;20077;-67
2022/07/31 11:23:30;;;;;;;;;;;22.30;99.90;;;;;;5098118;28;20011;-68
2022/07/31 11:26:00;;;;;;;;;;;22.40;99.90;;;;;;5072952;28;20014;-68
2022/07/31 11:28:26;;;;;;;;;;;22.60;99.90;;;;;;5080006;28;19912;-67
2022/07/31 11:30:52;;;;;;;;;;;22.70;99.90;;;;;;5085006;28;20007;-68
2022/07/31 11:33:27;;;;;;;;;;;23.00;99.90;;;;;;5105770;28;20018;-67
2022/07/31 11:35:55;;;;;;;;;;;23.20;99.90;;;;;;5097166;28;20177;-69
2022/07/31 11:38:30;;;;;;;;;;;23.50;99.90;;;;;;5093379;28;19920;-69
2022/07/31 11:40:55;;;;;;;;;;;23.40;99.90;;;;;;5100344;28;19920;-69
2022/07/31 11:43:22;;;;;;;;;;;23.00;99.90;;;;;;5097654;28;19920;-68
2022/07/31 11:45:48;;;;;;;;;;;22.90;99.90;;;;;;5093482;28;19944;-68
2022/07/31 11:48:15;;;;;;;;;;;23.00;99.90;;;;;;5076118;28;19916;-70
2022/07/31 11:50:41;;;;;;;;;;;22.90;99.90;;;;;;5102382;28;20009;-70
2022/07/31 11:53:06;;;;;;;;;;;23.00;99.90;;;;;;5072115;28;19915;-70
2022/07/31 11:55:42;;;;;;;;;;;23.10;99.90;;;;;;5098385;28;19920;-69
2022/07/31 11:58:09;;;;;;;;;;;23.30;99.90;;;;;;5077079;28;20525;-69
2022/07/31 12:00:35;;;;;;;;;;;23.30;99.90;;;;;;5098249;28;19916;-68
2022/07/31 12:03:00;;;;;;;;;;;23.40;99.90;;;;;;5097893;28;19920;-68
2022/07/31 12:05:26;;;;;;;;;;;23.60;99.90;;;;;;5088087;28;19920;-67
2022/07/31 12:07:52;;;;;;;;;;;23.40;99.90;;;;;;5092757;28;19912;-69
2022/07/31 12:10:17;;;;;;;;;;;23.40;99.90;;;;;;5094434;28;20010;-68
2022/07/31 12:12:43;;;;;;;;;;;23.20;99.90;;;;;;5085095;28;20211;-70
2022/07/31 12:15:27;;;;;;;;;;;23.50;99.90;;;;;;5089431;28;19916;-69
2022/07/31 12:18:00;;;;;;;;;;;23.70;99.90;;;;;;5092092;28;19916;-69
2022/07/31 12:20:26;;;;;;;;;;;23.80;99.90;;;;;;5073492;28;19916;-68
2022/07/31 12:22:58;;;;;;;;;;;23.80;99.90;;;;;;5092890;28;19950;-68
2022/07/31 12:25:24;;;;;;;;;;;23.70;99.90;;;;;;5070543;28;20350;-68
2022/07/31 12:27:56;;;;;;;;;;;23.90;99.90;;;;;;5092385;28;19981;-67
2022/07/31 12:30:23;;;;;;;;;;;24.00;99.90;;;;;;5090908;28;19924;-68
2022/07/31 12:32:51;;;;;;;;;;;23.80;99.90;;;;;;5068712;28;19916;-68
2022/07/31 12:35:17;;;;;;;;;;;23.50;99.90;;;;;;5073392;28;20074;-68
2022/07/31 12:37:44;;;;;;;;;;;23.60;99.90;;;;;;5098590;28;19991;-66
2022/07/31 12:40:20;;;;;;;;;;;23.80;99.90;;;;;;5091253;28;20431;-70
2022/07/31 12:42:45;;;;;;;;;;;23.90;99.90;;;;;;5095842;28;20011;-69
2022/07/31 12:45:11;;;;;;;;;;;23.80;99.90;;;;;;5068139;28;19912;-68
2022/07/31 12:47:37;;;;;;;;;;;23.80;99.90;;;;;;5090622;28;19916;-68
2022/07/31 12:50:02;;;;;;;;;;;23.80;99.90;;;;;;5088168;28;19920;-67
2022/07/31 12:52:30;;;;;;;;;;;23.90;99.90;;;;;;5087487;28;20358;-69
2022/07/31 12:54:55;;;;;;;;;;;24.00;99.90;;;;;;5087309;28;20059;-68
2022/07/31 12:57:21;;;;;;;;;;;24.10;99.90;;;;;;5077301;28;19916;-68
2022/07/31 12:59:47;;;;;;;;;;;24.20;99.90;;;;;;5072680;28;19912;-68
2022/07/31 13:02:12;;;;;;;;;;;24.40;99.90;;;;;;5091757;28;19912;-67
2022/07/31 13:04:38;;;;;;;;;;;24.70;99.90;;;;;;5090809;28;19916;-67
2022/07/31 13:07:03;;;;;;;;;;;24.70;99.90;;;;;;5075935;28;20286;-68
2022/07/31 13:09:29;;;;;;;;;;;24.50;99.90;;;;;;5096301;28;19919;-68
2022/07/31 13:11:55;;;;;;;;;;;24.30;99.90;;;;;;5090613;28;19936;-68
2022/07/31 13:14:22;;;;;;;;;;;24.50;99.90;;;;;;5093752;28;19920;-69
2022/07/31 13:16:49;;;;;;;;;;;24.70;99.90;;;;;;5091715;28;19916;-69
2022/07/31 13:19:15;;;;;;;;;;;24.70;99.90;;;;;;5088856;28;20035;-68
2022/07/31 13:21:41;;;;;;;;;;;24.70;99.90;;;;;;5075805;28;20022;-68
2022/07/31 13:24:08;;;;;;;;;;;24.70;99.90;;;;;;5085942;28;19922;-69
2022/07/31 13:26:36;;;;;;;;;;;24.70;99.90;;;;;;5090205;28;20002;-68
2022/07/31 13:29:02;;;;;;;;;;;24.70;99.90;;;;;;5090097;28;19912;-68
2022/07/31 13:31:28;;;;;;;;;;;24.80;99.90;;;;;;5074934;28;19924;-68
2022/07/31 13:33:54;;;;;;;;;;;25.00;99.90;;;;;;5075098;28;20055;-68
2022/07/31 13:36:19;;;;;;;;;;;25.40;99.90;;;;;;5095335;28;19943;-70
2022/07/31 13:38:45;;;;;;;;;;;25.30;99.90;;;;;;5092971;28;19916;-69
2022/07/31 13:41:19;;;;;;;;;;;25.40;99.90;;;;;;5092843;28;19919;-68
2022/07/31 13:43:45;;;;;;;;;;;25.50;99.90;;;;;;5098283;28;19911;-68
2022/07/31 13:46:11;;;;;;;;;;;25.70;99.90;;;;;;5097225;28;19919;-69
2022/07/31 13:48:37;;;;;;;;;;;25.70;99.90;;;;;;5077245;28;19955;-69
2022/07/31 13:51:02;;;;;;;;;;;25.80;99.90;;;;;;5091903;28;19927;-69
2022/07/31 13:53:28;;;;;;;;;;;25.60;99.90;;;;;;5075187;28;19912;-68
2022/07/31 13:55:54;;;;;;;;;;;25.50;99.90;;;;;;5076500;28;20271;-68
2022/07/31 13:58:20;;;;;;;;;;;25.20;99.90;;;;;;5088976;28;19912;-69
2022/07/31 14:00:45;;;;;;;;;;;25.20;99.90;;;;;;5096939;28;19915;-67
2022/07/31 14:03:11;;;;;;;;;;;25.40;99.90;;;;;;5093369;28;19971;-68
2022/07/31 14:05:37;;;;;;;;;;;25.40;99.90;;;;;;5099054;28;19937;-68
2022/07/31 14:08:03;;;;;;;;;;;25.30;99.90;;;;;;5098007;28;19941;-68
2022/07/31 14:10:28;;;;;;;;;;;25.20;99.90;;;;;;5097029;28;20145;-67
2022/07/31 14:12:54;;;;;;;;;;;25.20;99.90;;;;;;5090409;28;20005;-69